Wetterstation Tischlerei-Herzog
Wetterdaten: aktuell Freitag, 20.05.2022 15:36
Datum Zeit Temp. N Temp. S Temp. Htte Aussentemp. Temp. Bo Feuchte Htt Luftfeuchte Luftdruck Niederschl. Taupunkt
20.05.2022 15:36 27,6 C 28,4 C 29,0 C 27,6 C 22,3 C 20 % 25 % 1011,6 hPa 0,0 l/m 5,8 C
20.05.2022 14:36 26,6 C 29,7 C 27,6 C 26,6 C 21,2 C 20 % 22 % 1013,8 hPa 0,0 l/m 3,1 C
20.05.2022 13:36 26,3 C 28,1 C 26,4 C 26,3 C 20,1 C 20 % 27 % 1014,9 hPa 0,0 l/m 5,8 C
20.05.2022 12:36 23,5 C 25,4 C 24,1 C 23,5 C 19,0 C 20 % 32 % 1015,3 hPa 0,0 l/m 5,8 C
20.05.2022 11:36 21,3 C 21,3 C 20,6 C 21,3 C 18,4 C 23 % 40 % 1017,7 hPa 0,0 l/m 7,1 C
20.05.2022 10:36 20,8 C 19,7 C 19,4 C 19,7 C 17,9 C 25 % 42 % 1018,0 hPa 0,0 l/m 6,4 C
20.05.2022 09:36 19,7 C 19,1 C 19,5 C 19,1 C 17,4 C 25 % 45 % 1019,1 hPa 0,0 l/m 6,9 C
20.05.2022 08:36 22,6 C 19,7 C 19,2 C 19,7 C 17,0 C 28 % 41 % 1018,0 hPa 0,0 l/m 6,1 C
20.05.2022 07:36 18,3 C 17,3 C 15,6 C 17,3 C 16,8 C 84 % 48 % 1019,4 hPa 0,0 l/m 6,2 C
20.05.2022 06:36 13,5 C 14,0 C 12,5 C 13,5 C 16,5 C 83 % 71 % 1020,0 hPa 0,0 l/m 8,3 C
20.05.2022 05:36 12,1 C 12,7 C 11,7 C 12,1 C 17,1 C 79 % 70 % 1020,2 hPa 0,0 l/m 6,8 C
20.05.2022 04:36 12,8 C 13,1 C 12,5 C 12,8 C 17,6 C 75 % 59 % 1019,0 hPa 0,0 l/m 5,0 C
20.05.2022 03:36 13,5 C 14,5 C 13,6 C 13,5 C 18,1 C 74 % 58 % 1018,9 hPa 0,0 l/m 5,4 C
20.05.2022 02:36 14,3 C 15,3 C 14,7 C 14,3 C 18,6 C 73 % 52 % 1018,8 hPa 0,0 l/m 4,6 C
20.05.2022 01:36 14,7 C 15,4 C 14,7 C 14,7 C 19,0 C 68 % 61 % 1018,7 hPa 0,0 l/m 7,3 C
20.05.2022 00:36 15,1 C 16,0 C 15,6 C 15,1 C 19,8 C 53 % 56 % 1017,6 hPa 0,0 l/m 6,4 C
19.05.2022 23:36 15,4 C 16,7 C 15,9 C 15,4 C 20,6 C 53 % 55 % 1017,6 hPa 0,0 l/m 6,4 C
19.05.2022 22:30 15,8 C 16,9 C 16,1 C 15,8 C 20,7 C 50 % 55 % 1018,6 hPa 3,1 l/m 6,8 C
19.05.2022 21:30 16,1 C 17,6 C 17,0 C 16,1 C 22,2 C 46 % 52 % 1019,6 hPa 2,5 l/m 6,2 C
19.05.2022 20:30 24,1 C 24,6 C 24,5 C 24,1 C 23,5 C 20 % 26 % 1015,2 hPa 0,0 l/m 3,4 C
19.05.2022 19:30 26,3 C 26,6 C 26,8 C 26,3 C 23,8 C 20 % 20 % 1014,9 hPa 0,0 l/m 1,5 C
19.05.2022 18:30 27,8 C 27,8 C 28,6 C 27,8 C 23,9 C 20 % 20 % 1013,7 hPa 0,0 l/m 2,8 C
19.05.2022 17:30 29,8 C 28,9 C 29,4 C 28,9 C 23,8 C 20 % 20 % 1013,5 hPa 0,0 l/m 3,7 C
19.05.2022 16:30 30,0 C 29,4 C 30,4 C 29,4 C 23,4 C 20 % 20 % 1013,4 hPa 0,0 l/m 4,1 C
19.05.2022 16:00 30,3 C 30,6 C 30,9 C 30,3 C 23,0 C 20 % 20 % 1014,4 hPa 0,0 l/m 4,8 C
_ Min-Zeit 05:11 05:36 05:41 05:11 07:06 16:00 16:00 15:31 - 20:15
Minimum _ 12,1 C 12,7 C 11,5 C 12,1 C 16,4 C 20 % 20 % 1011,6 hPa - 0,2 C
_ Max-Zeit 16:05 14:56 16:05 16:05 17:40 07:41 06:06 05:16 21:00 07:11
Maximum _ 30,7 C 31,0 C 31,1 C 30,7 C 23,9 C 85 % 77 % 1020,2 hPa 0,7 l/m 11,3 C
Durchschnitt _ 21,0 C 21,3 C 20,8 C 20,6 C 20,1 C 41 % 42 % 1017,0 hPa #5,6 l/m 5,7 C
Tischlerei Herzog